Time;durP1;ratioP1;P1;durP2;ratioP2;P2;SDS_P1;SDS_P2;PMS_P1;PMS_P2;Temp;Humidity;BMP_temperature;BMP_pressure;BME280_temperature;BME280_humidity;BME280_pressure;Samples;Min_cycle;Max_cycle;Signal;HPM_P1;HPM_P2
2023/10/01 00:04:49;;;;;;;1999.90;999.90;;;;;;;13.98;100.00;102322.91;10321780;28;20050;-70
2023/10/01 00:09:52;;;;;;;1999.90;999.90;;;;;;;13.89;100.00;102311.06;10305241;28;20049;-70
2023/10/01 00:14:54;;;;;;;1999.90;999.90;;;;;;;13.70;100.00;102314.56;10320327;28;20486;-70
2023/10/01 00:19:57;;;;;;;1999.90;999.90;;;;;;;13.36;100.00;102318.72;10304853;28;20046;-71
2023/10/01 00:24:59;;;;;;;1999.90;999.90;;;;;;;13.65;100.00;102324.44;10337136;28;20134;-71
2023/10/01 00:30:02;;;;;;;1999.90;999.90;;;;;;;13.40;100.00;102335.22;10337608;28;20054;-70
2023/10/01 00:35:06;;;;;;;1999.90;999.90;;;;;;;13.29;100.00;102327.75;10337490;28;20054;-70
2023/10/01 00:40:10;;;;;;;1999.90;999.90;;;;;;;13.27;100.00;102318.25;10303139;28;20086;-70
2023/10/01 00:45:16;;;;;;;1999.90;999.90;;;;;;;13.65;100.00;102318.28;10320039;28;20050;-70
2023/10/01 00:50:23;;;;;;;1999.90;999.90;;;;;;;13.38;100.00;102327.41;10319314;28;20046;-70
2023/10/01 00:55:26;;;;;;;1999.90;999.90;;;;;;;13.46;100.00;102313.88;10319564;28;20415;-70
2023/10/01 01:00:29;;;;;;;1999.90;999.90;;;;;;;13.43;100.00;102306.16;10319277;28;20058;-71
2023/10/01 01:05:37;;;;;;;1999.90;999.90;;;;;;;13.41;100.00;102296.59;10336192;28;20054;-71
2023/10/01 01:10:42;;;;;;;1999.90;999.90;;;;;;;13.50;100.00;102283.88;10319675;28;20050;-70
2023/10/01 01:15:51;;;;;;;1999.90;999.90;;;;;;;13.52;100.00;102276.78;10318693;28;20129;-70
2023/10/01 01:21:09;;;;;;;1999.90;999.90;;;;;;;13.41;100.00;102276.41;10335540;28;20065;-70
2023/10/01 01:26:20;;;;;;;1999.90;999.90;;;;;;;13.24;100.00;102276.28;10319741;28;20406;-70
2023/10/01 01:31:28;;;;;;;1999.90;999.90;;;;;;;13.45;100.00;102270.09;10335213;28;20078;-70
2023/10/01 01:36:31;;;;;;;1999.90;999.90;;;;;;;13.60;100.00;102260.63;10333577;28;20054;-70
2023/10/01 01:41:33;;;;;;;1999.90;999.90;;;;;;;13.54;100.00;102268.81;10334413;28;20133;-70
2023/10/01 01:46:47;;;;;;;1999.90;999.90;;;;;;;13.49;100.00;102266.38;10301283;28;20054;-70
2023/10/01 01:51:59;;;;;;;1999.90;999.90;;;;;;;13.55;100.00;102257.38;10319090;28;20085;-70
2023/10/01 01:57:03;;;;;;;1999.90;999.90;;;;;;;13.88;100.00;102247.00;10303610;28;20101;-70
2023/10/01 02:02:09;;;;;;;1999.90;999.90;;;;;;;14.15;100.00;102241.31;10316567;28;20073;-69
2023/10/01 02:07:12;;;;;;;1999.90;999.90;;;;;;;14.22;100.00;102236.59;10317529;28;20056;-70
2023/10/01 02:12:23;;;;;;;1999.90;999.90;;;;;;;14.34;100.00;102227.22;10334082;28;20046;-70
2023/10/01 02:17:29;;;;;;;;;;;;;;;14.44;100.00;102234.59;10318538;28;20061;-70
2023/10/01 02:22:33;;;;;;;1999.90;999.90;;;;;;;14.32;100.00;102229.94;10317245;28;19937;-71
2023/10/01 02:27:43;;;;;;;1999.90;999.90;;;;;;;14.34;100.00;102227.22;10333798;28;20057;-70
2023/10/01 02:38:07;;;;;;;1999.90;999.90;;;;;;;14.33;100.00;102231.63;10333137;28;20051;-70
2023/10/01 02:43:14;;;;;;;1999.90;999.90;;;;;;;14.35;98.69;102232.41;10316096;28;20082;-70
2023/10/01 02:48:17;;;;;;;1999.90;999.90;;;;;;;14.48;98.19;102227.38;10319408;28;20050;-69
2023/10/01 02:53:22;;;;;;;1999.90;999.90;;;;;;;14.36;96.18;102228.84;10308179;28;20054;-70
2023/10/01 02:58:27;;;;;;;1999.90;999.90;;;;;;;14.40;97.21;102233.03;10323407;28;20419;-70
2023/10/01 03:03:38;;;;;;;1999.90;999.90;;;;;;;14.55;97.86;102228.75;10324365;28;20113;-70
2023/10/01 03:13:51;;;;;;;1999.90;999.90;;;;;;;14.66;97.50;102228.25;10339969;28;20488;-70
2023/10/01 03:18:55;;;;;;;1999.90;999.90;;;;;;;14.35;99.38;102218.41;10323312;28;20056;-70
2023/10/01 03:23:58;;;;;;;1999.90;999.90;;;;;;;14.28;100.00;102218.69;10339874;28;20499;-70
2023/10/01 03:29:19;;;;;;;1999.90;999.90;;;;;;;14.30;100.00;102216.00;10339867;28;20137;-70
2023/10/01 03:34:30;;;;;;;1999.90;999.90;;;;;;;14.26;100.00;102217.09;10339952;28;20133;-70
2023/10/01 03:39:35;;;;;;;1999.90;999.90;;;;;;;14.20;98.54;102209.47;10338953;28;20064;-69
2023/10/01 03:49:59;;;;;;;1999.90;999.90;;;;;;;14.12;100.00;102220.38;10324019;28;20157;-70
2023/10/01 03:55:25;;;;;;;1999.90;999.90;;;;;;;14.12;100.00;102210.72;10305798;28;20089;-70
2023/10/01 04:01:15;;;;;;;1999.90;999.90;;;;;;;14.14;100.00;102210.66;10309429;28;20051;-70
2023/10/01 04:05:56;;;;;;;1999.90;999.90;;;;;;;14.11;100.00;102206.38;10336235;28;20054;-70
2023/10/01 04:10:59;;;;;;;1999.90;999.90;;;;;;;14.20;100.00;102207.69;10338299;28;20081;-69
2023/10/01 04:16:08;;;;;;;1999.90;999.90;;;;;;;14.34;99.31;102201.75;10338548;28;20061;-70
2023/10/01 04:26:17;;;;;;;1999.90;999.90;;;;;;;14.37;98.45;102216.53;10337217;28;20499;-70
2023/10/01 04:31:42;;;;;;;1999.90;999.90;;;;;;;14.42;100.00;102212.72;10337545;28;20057;-70
2023/10/01 04:36:44;;;;;;;1999.90;999.90;;;;;;;14.35;100.00;102219.25;10322421;28;20105;-70
2023/10/01 04:41:46;;;;;;;1999.90;999.90;;;;;;;14.46;99.90;102214.28;10303633;28;20056;-70
2023/10/01 04:46:51;;;;;;;1999.90;999.90;;;;;;;14.45;99.98;102215.19;10319182;28;20061;-70
2023/10/01 04:52:01;;;;;;;1999.90;999.90;;;;;;;14.15;100.00;102216.75;10336690;28;20054;-70
2023/10/01 04:57:03;;;;;;;1999.90;999.90;;;;;;;14.21;100.00;102213.84;10318762;28;20054;-70
2023/10/01 05:02:21;;;;;;;1999.90;999.90;;;;;;;14.23;100.00;102212.81;10319066;28;20129;-70
2023/10/01 05:07:24;;;;;;;1999.90;999.90;;;;;;;14.44;100.00;102210.00;10335550;28;20125;-70
2023/10/01 05:12:30;;;;;;;1999.90;999.90;;;;;;;14.16;100.00;102207.94;10318363;28;20108;-70
2023/10/01 05:17:33;;;;;;;1999.90;999.90;;;;;;;14.16;100.00;102205.31;10302962;28;20054;-70
2023/10/01 05:22:46;;;;;;;1999.90;999.90;;;;;;;14.16;100.00;102208.78;10335596;28;20054;-70
2023/10/01 05:27:54;;;;;;;1999.90;999.90;;;;;;;14.16;100.00;102213.22;10335519;28;20061;-70
2023/10/01 05:32:58;;;;;;;1999.90;999.90;;;;;;;14.14;100.00;102208.00;10317441;28;20053;-70
2023/10/01 05:38:04;;;;;;;1999.90;999.90;;;;;;;14.05;100.00;102211.09;10317841;28;20054;-70
2023/10/01 05:43:16;;;;;;;1999.90;999.90;;;;;;;14.10;100.00;102214.34;10318207;28;20105;-71
2023/10/01 05:48:19;;;;;;;1999.90;999.90;;;;;;;14.01;100.00;102212.19;10334208;28;20069;-70
2023/10/01 05:53:22;;;;;;;1999.90;999.90;;;;;;;14.20;100.00;102220.84;10334778;28;20058;-70
2023/10/01 05:58:26;;;;;;;1999.90;999.90;;;;;;;14.09;100.00;102220.56;10300922;28;20566;-69
2023/10/01 06:03:30;;;;;;;1999.90;999.90;;;;;;;14.15;100.00;102229.94;10316800;28;20450;-69
2023/10/01 06:08:33;;;;;;;1999.90;999.90;;;;;;;14.23;99.68;102222.50;10333540;28;20487;-69
2023/10/01 06:13:48;;;;;;;1999.90;999.90;;;;;;;14.42;99.68;102231.16;10334129;28;20054;-69
2023/10/01 06:18:56;;;;;;;1999.90;999.90;;;;;;;14.34;99.33;102235.13;10318438;28;20053;-68
2023/10/01 06:24:04;;;;;;;1999.90;999.90;;;;;;;14.36;100.00;102236.75;10320809;28;20078;-70
2023/10/01 06:29:08;;;;;;;1999.90;999.90;;;;;;;14.40;98.75;102237.47;10341593;28;20487;-69
2023/10/01 06:34:13;;;;;;;1999.90;999.90;;;;;;;14.42;99.40;102233.78;10342072;28;20046;-70
2023/10/01 06:39:19;;;;;;;1999.90;999.90;;;;;;;14.59;98.38;102242.66;10323775;28;20545;-70
2023/10/01 06:44:22;;;;;;;1999.90;999.90;;;;;;;14.58;98.04;102235.66;10309081;28;20551;-70
2023/10/01 06:49:24;;;;;;;1999.90;999.90;;;;;;;14.52;99.17;102225.44;10324260;28;20052;-70
2023/10/01 06:54:27;;;;;;;1999.90;999.90;;;;;;;14.66;98.90;102223.00;10340753;28;20061;-70
2023/10/01 06:59:29;;;;;;;1999.90;999.90;;;;;;;14.65;98.24;102229.19;10341653;28;20125;-69
2023/10/01 07:04:32;;;;;;;1999.90;999.90;;;;;;;14.84;96.02;102206.19;10340313;28;20050;-70
2023/10/01 07:09:35;;;;;;;1999.90;999.90;;;;;;;14.99;95.32;102216.84;10340199;28;20078;-69
2023/10/01 07:14:50;;;;;;;1999.90;999.90;;;;;;;15.03;95.79;102224.53;10323624;28;20053;-70
2023/10/01 07:20:00;;;;;;;1999.90;999.90;;;;;;;15.28;94.72;102233.75;10324865;28;20404;-70
2023/10/01 07:25:03;;;;;;;1999.90;999.90;;;;;;;15.68;92.32;102228.03;10340233;28;20129;-70
2023/10/01 07:30:06;;;;;;;1999.90;999.90;;;;;;;16.09;90.71;102220.44;10322611;28;20083;-70
2023/10/01 07:35:09;;;;;;;1999.90;999.90;;;;;;;16.78;87.16;102219.88;10322278;28;20115;-70
2023/10/01 07:40:16;;;;;;;1999.90;999.90;;;;;;;16.59;87.82;102218.34;10339228;28;20458;-70
2023/10/01 07:45:19;;;;;;;1999.90;999.90;;;;;;;17.51;85.51;102226.84;10323375;28;20133;-70
2023/10/01 07:50:24;;;;;;;1999.90;999.90;;;;;;;17.52;84.03;102228.56;10306564;28;20050;-69
2023/10/01 07:55:29;;;;;;;1999.90;999.90;;;;;;;17.91;81.66;102227.78;10339437;28;20050;-70
2023/10/01 08:00:34;;;;;;;1999.90;999.90;;;;;;;18.50;80.99;102232.69;10322105;28;20046;-70
2023/10/01 08:05:39;;;;;;;1999.90;999.90;;;;;;;18.59;81.01;102238.31;10339294;28;20054;-70
2023/10/01 08:10:43;;;;;;;1999.90;999.90;;;;;;;19.09;79.09;102245.41;10338417;28;20042;-70
2023/10/01 08:15:57;;;;;;;1999.90;999.90;;;;;;;19.61;76.72;102259.44;10321307;28;20133;-69
2023/10/01 08:21:02;;;;;;;1999.90;999.90;;;;;;;19.55;76.11;102257.25;10337513;28;20488;-69
2023/10/01 08:32:07;;;;;;;1999.90;999.90;;;;;;;20.66;75.96;102248.16;10337691;28;20050;-70
2023/10/01 08:37:08;;;;;;;1999.90;999.90;;;;;;;21.43;73.85;102255.41;10336902;28;20078;-70
2023/10/01 08:42:12;;;;;;;1999.90;999.90;;;;;;;22.10;71.23;102249.03;10336841;28;20104;-70
2023/10/01 08:47:37;;;;;;;1999.90;999.90;;;;;;;21.56;73.08;102245.47;10318778;28;20491;-71
2023/10/01 08:52:52;;;;;;;1999.90;999.90;;;;;;;21.98;67.10;102232.25;10319485;28;20057;-74
2023/10/01 08:57:55;;;;;;;1999.90;999.90;;;;;;;24.20;65.08;102222.66;10321504;28;20050;-75
2023/10/01 09:03:10;;;;;;;1999.90;999.90;;;;;;;23.43;65.74;102233.16;10336757;28;20046;-75
2023/10/01 09:08:29;;;;;;;1999.90;999.90;;;;;;;22.89;66.50;102243.22;10321647;28;20085;-75
2023/10/01 09:13:31;;;;;;;1999.90;999.90;;;;;;;23.70;64.38;102243.22;10319591;28;20053;-75
2023/10/01 09:18:37;;;;;;;1999.90;999.90;;;;;;;23.68;64.79;102229.13;10336138;28;20057;-76
2023/10/01 09:23:55;;;;;;;1999.90;999.90;;;;;;;24.41;64.28;102226.00;10336000;28;20060;-76
2023/10/01 09:29:12;;;;;;;1999.90;999.90;;;;;;;24.88;64.09;102222.50;10319650;28;20046;-75
2023/10/01 09:34:29;;;;;;;1999.90;999.90;;;;;;;25.50;60.89;102219.19;10335681;28;20105;-75
2023/10/01 09:39:38;;;;;;;1999.90;999.90;;;;;;;23.46;65.53;102229.38;10319670;28;20499;-75
2023/10/01 09:44:46;;;;;;;1999.90;999.90;;;;;;;24.66;61.33;102223.69;10318122;28;20056;-76
2023/10/01 09:49:54;;;;;;;1999.90;999.90;;;;;;;25.04;64.69;102227.22;10318986;28;20042;-77
2023/10/01 09:55:09;;;;;;;1999.90;999.90;;;;;;;26.57;57.88;102231.66;10316944;28;20053;-76
2023/10/01 10:00:17;;;;;;;1999.90;999.90;;;;;;;26.61;57.81;102229.47;10333537;28;20046;-76
2023/10/01 10:05:26;;;;;;;1999.90;999.90;;;;;;;27.42;56.31;102220.97;10334831;28;20112;-77
2023/10/01 10:10:29;;;;;;;1999.90;999.90;;;;;;;27.63;56.25;102219.63;10334348;28;20081;-76
2023/10/01 10:15:54;;;;;;;1999.90;999.90;;;;;;;27.76;53.95;102214.59;10316902;28;20546;-77
2023/10/01 10:21:03;;;;;;;1999.90;999.90;;;;;;;27.46;55.62;102207.19;10316454;28;20487;-76
2023/10/01 10:26:14;;;;;;;1999.90;999.90;;;;;;;28.59;52.85;102201.09;10317246;28;20078;-77
2023/10/01 10:31:36;;;;;;;1999.90;999.90;;;;;;;29.69;49.31;102211.78;10301027;28;20046;-76
2023/10/01 10:36:50;;;;;;;1999.90;999.90;;;;;;;29.27;51.33;102207.72;10317614;28;20062;-76
2023/10/01 10:42:40;;;;;;;1999.90;999.90;;;;;;;27.12;53.97;102206.22;10331202;28;20503;-75
2023/10/01 10:48:04;;;;;;;1999.90;999.90;;;;;;;28.54;52.41;102199.69;10332803;28;20061;-71
2023/10/01 10:53:19;;;;;;;1999.90;999.90;;;;;;;29.50;49.45;102190.69;10331854;28;20054;-70
2023/10/01 10:58:24;;;;;;;1999.90;999.90;;;;;;;27.66;51.73;102187.03;10415767;22;20472;-72
2023/10/01 11:03:40;;;;;;;1999.90;999.90;;;;;;;28.45;51.11;102186.47;10414716;28;20084;-73
2023/10/01 11:08:51;;;;;;;1999.90;999.90;;;;;;;29.85;49.90;102178.44;10399313;28;20055;-73
2023/10/01 11:14:00;;;;;;;1999.90;999.90;;;;;;;29.12;48.55;102175.25;10389229;28;20062;-73
2023/10/01 11:19:15;;;;;;;1999.90;999.90;;;;;;;30.28;47.26;102159.78;10405378;28;20060;-72
2023/10/01 11:24:17;;;;;;;1999.90;999.90;;;;;;;29.55;50.14;102158.59;10421825;28;20049;-72
2023/10/01 11:29:23;;;;;;;1999.90;999.90;;;;;;;28.81;50.08;102165.28;10403912;28;20057;-72
2023/10/01 11:34:30;;;;;;;1999.90;999.90;;;;;;;28.62;49.64;102155.78;10420715;28;20486;-72
2023/10/01 11:39:40;;;;;;;1999.90;999.90;;;;;;;28.48;50.03;102154.63;10421615;28;20084;-73
2023/10/01 11:44:43;;;;;;;1999.90;999.90;;;;;;;26.23;54.40;102157.28;10403908;28;20573;-73
2023/10/01 11:50:07;;;;;;;1999.90;999.90;;;;;;;27.83;52.64;102149.38;10420720;28;20053;-73
2023/10/01 11:55:21;;;;;;;1999.90;999.90;;;;;;;27.16;54.54;102144.91;10403319;28;20068;-72
2023/10/01 12:05:47;;;;;;;1999.90;999.90;;;;;;;27.04;54.23;102136.31;10420184;28;20049;-72
2023/10/01 12:10:51;;;;;;;1999.90;999.90;;;;;;;27.91;52.95;102127.81;10419843;28;20051;-72
2023/10/01 12:15:53;;;;;;;1999.90;999.90;;;;;;;28.44;53.53;102126.34;10401851;28;20128;-72
2023/10/01 12:20:58;;;;;;;1999.90;999.90;;;;;;;27.41;53.02;102113.56;10418432;28;20103;-72
2023/10/01 12:26:32;;;;;;;1999.90;999.90;;;;;;;26.90;55.75;102134.25;10418793;28;20463;-72
2023/10/01 12:31:23;;;;;;;1999.90;999.90;;;;;;;28.45;52.15;102108.34;10404165;28;20132;-71
2023/10/01 12:36:32;;;;;;;1999.90;999.90;;;;;;;28.74;51.81;102110.41;10418522;28;20613;-67
2023/10/01 12:41:47;;;;;;;1999.90;999.90;;;;;;;27.96;52.29;102112.88;10418628;28;20513;-68
2023/10/01 12:47:16;;;;;;;1999.90;999.90;;;;;;;26.70;56.05;102115.75;10403268;28;20054;-68
2023/10/01 12:52:30;;;;;;;1999.90;999.90;;;;;;;27.35;55.41;102103.47;10401311;28;20050;-68
2023/10/01 12:57:38;;;;;;;1999.90;999.90;;;;;;;27.15;54.75;102103.75;10417761;28;20081;-68
2023/10/01 13:02:44;;;;;;;1999.90;999.90;;;;;;;24.90;60.39;102102.66;10401948;28;20061;-68
2023/10/01 13:07:49;;;;;;;1999.90;999.90;;;;;;;27.84;53.93;102081.06;10417803;28;20053;-68
2023/10/01 13:12:57;;;;;;;1999.90;999.90;;;;;;;27.21;55.09;102078.06;10417645;28;20073;-68
2023/10/01 13:18:01;;;;;;;1999.90;999.90;;;;;;;27.15;53.83;102068.81;10400045;28;20049;-67
2023/10/01 13:23:07;;;;;;;1999.90;999.90;;;;;;;26.94;54.99;102066.59;10399400;28;20421;-67
2023/10/01 13:28:16;;;;;;;1999.90;999.90;;;;;;;26.57;56.90;102072.38;10417015;28;20050;-67
2023/10/01 13:33:20;;;;;;;1999.90;999.90;;;;;;;26.28;61.16;102068.22;10399015;28;20128;-68
2023/10/01 14:10:25;;;;;;;1999.90;999.90;;;;;;;26.62;59.04;102040.50;10415578;28;20049;-68
2023/10/01 14:15:29;;;;;;;1999.90;999.90;;;;;;;26.63;56.74;102043.03;10415078;28;20046;-67
2023/10/01 14:20:38;;;;;;;1999.90;999.90;;;;;;;26.74;54.03;102035.69;10414842;28;20052;-67
2023/10/01 14:25:52;;;;;;;1999.90;999.90;;;;;;;27.24;54.31;102019.41;10398201;28;20060;-67
2023/10/01 14:31:08;;;;;;;1999.90;999.90;;;;;;;25.77;57.27;102028.69;10399493;28;20053;-67
2023/10/01 14:36:11;;;;;;;1999.90;999.90;;;;;;;24.75;62.72;102011.25;10415195;28;20049;-67
2023/10/01 14:41:17;;;;;;;1999.90;999.90;;;;;;;24.33;64.30;102019.81;10415147;28;20049;-67
2023/10/01 14:46:30;;;;;;;1999.90;999.90;;;;;;;24.30;64.92;102023.63;10404004;28;20073;-66
2023/10/01 14:51:37;;;;;;;1999.90;999.90;;;;;;;23.02;74.07;102018.66;10405753;28;20048;-66
2023/10/01 14:56:39;;;;;;;1999.90;999.90;;;;;;;23.29;74.83;102017.16;10388581;28;20111;-67
2023/10/01 15:01:42;;;;;;;1999.90;999.90;;;;;;;23.18;75.01;102010.09;10422622;28;20053;-67
2023/10/01 15:06:57;;;;;;;1999.90;999.90;;;;;;;23.24;76.05;102014.06;10422420;28;20053;-67
2023/10/01 15:12:01;;;;;;;1999.90;999.90;;;;;;;22.77;77.97;102004.88;10404758;28;20049;-67
2023/10/01 15:17:17;;;;;;;1999.90;999.90;;;;;;;22.69;81.17;102003.88;10405843;28;20072;-69
2023/10/01 15:22:20;;;;;;;1999.90;999.90;;;;;;;25.84;69.62;101988.66;10421926;28;20045;-69
2023/10/01 15:27:26;;;;;;;1999.90;999.90;;;;;;;24.09;74.80;101996.25;10421738;28;20049;-68
2023/10/01 15:32:29;;;;;;;1999.90;999.90;;;;;;;22.72;80.99;102001.78;10403390;28;20441;-68
2023/10/01 15:37:33;;;;;;;1999.90;999.90;;;;;;;23.65;78.04;101993.28;10421209;28;20060;-69
2023/10/01 15:42:36;;;;;;;1999.90;999.90;;;;;;;22.61;82.91;101993.88;10402944;28;20081;-68
2023/10/01 15:47:42;;;;;;;1999.90;999.90;;;;;;;22.77;83.87;101980.84;10420886;28;20115;-69
2023/10/01 15:52:46;;;;;;;1999.90;999.90;;;;;;;22.47;88.17;102007.63;10403670;28;20207;-68
2023/10/01 15:57:54;;;;;;;1999.90;999.90;;;;;;;21.56;97.50;101992.34;10401397;28;20092;-69
2023/10/01 16:03:03;;;;;;;1999.90;999.90;;;;;;;21.52;100.00;101999.75;10420263;28;20410;-68
2023/10/01 16:08:20;;;;;;;1999.90;999.90;;;;;;;21.42;100.00;102000.66;10402543;28;20095;-68
2023/10/01 16:13:30;;;;;;;1999.90;999.90;;;;;;;21.14;100.00;101998.47;10419807;28;20088;-68
2023/10/01 16:18:41;;;;;;;1999.90;999.90;;;;;;;20.71;100.00;101998.50;10403069;28;20045;-68
2023/10/01 16:23:49;;;;;;;1999.90;999.90;;;;;;;20.27;100.00;101998.44;10402682;28;20471;-68
2023/10/01 16:28:56;;;;;;;1999.90;999.90;;;;;;;20.44;100.00;101993.56;10419146;28;20056;-68
2023/10/01 16:34:00;;;;;;;1999.90;999.90;;;;;;;20.17;100.00;101998.34;10419583;28;20050;-68
2023/10/01 16:39:04;;;;;;;1999.90;999.90;;;;;;;20.09;100.00;101997.22;10401947;28;20056;-68
2023/10/01 16:44:07;;;;;;;1999.90;999.90;;;;;;;19.99;100.00;101999.78;10418128;28;20048;-68
2023/10/01 16:49:12;;;;;;;1999.90;999.90;;;;;;;19.81;100.00;101996.75;10401128;28;20053;-68
2023/10/01 16:54:16;;;;;;;1999.90;999.90;;;;;;;19.68;100.00;102010.94;10418342;28;20104;-68
2023/10/01 16:59:21;;;;;;;1999.90;999.90;;;;;;;19.60;100.00;102008.03;10417512;28;20453;-68
2023/10/01 17:04:26;;;;;;;1999.90;999.90;;;;;;;19.44;100.00;102003.03;10417943;28;20042;-68
2023/10/01 17:09:33;;;;;;;1999.90;999.90;;;;;;;19.42;100.00;102004.97;10417242;28;20053;-68
2023/10/01 17:14:37;;;;;;;1999.90;999.90;;;;;;;18.96;100.00;101996.94;10417187;28;20123;-68
2023/10/01 17:19:40;;;;;;;1999.90;999.90;;;;;;;18.92;100.00;102010.44;10399796;28;20055;-68
2023/10/01 17:24:46;;;;;;;1999.90;999.90;;;;;;;18.89;100.00;102009.81;10399746;28;20049;-68
2023/10/01 17:29:50;;;;;;;1999.90;999.90;;;;;;;18.79;100.00;102011.44;10399142;28;20438;-67
2023/10/01 17:34:56;;;;;;;1999.90;999.90;;;;;;;18.57;100.00;102007.66;10399286;28;20534;-68
2023/10/01 17:40:16;;;;;;;1999.90;999.90;;;;;;;18.47;100.00;102004.00;10398680;28;20413;-68
2023/10/01 17:45:20;;;;;;;1999.90;999.90;;;;;;;18.31;100.00;102006.91;10416413;28;20060;-68
2023/10/01 17:50:22;;;;;;;1999.90;999.90;;;;;;;18.27;100.00;102014.19;10415350;28;20410;-68
2023/10/01 17:55:26;;;;;;;1999.90;999.90;;;;;;;18.19;100.00;102011.28;10415805;28;20057;-68
2023/10/01 18:00:42;;;;;;;1999.90;999.90;;;;;;;17.96;100.00;102015.53;10397845;28;20056;-68
2023/10/01 18:06:05;;;;;;;1999.90;999.90;;;;;;;17.90;100.00;102005.34;10400445;28;20053;-68
2023/10/01 18:11:12;;;;;;;1999.90;999.90;;;;;;;17.76;100.00;102007.13;10401262;28;20049;-68
2023/10/01 18:16:27;;;;;;;1999.90;999.90;;;;;;;17.73;100.00;102020.56;10415010;28;20092;-68
2023/10/01 18:21:35;;;;;;;1999.90;999.90;;;;;;;17.66;100.00;102013.16;10414153;28;20387;-68
2023/10/01 18:26:45;;;;;;;1999.90;999.90;;;;;;;17.63;100.00;102019.50;10415432;28;20064;-68
2023/10/01 18:31:51;;;;;;;1999.90;999.90;;;;;;;17.41;100.00;102018.28;10415295;28;20050;-67
2023/10/01 18:36:55;;;;;;;1999.90;999.90;;;;;;;17.50;100.00;102015.97;10397626;28;20085;-67
2023/10/01 18:42:02;;;;;;;1999.90;999.90;;;;;;;17.35;100.00;102018.72;10414421;28;20494;-67
2023/10/01 18:47:05;;;;;;;1999.90;999.90;;;;;;;17.38;100.00;102020.31;10398202;28;20057;-67
2023/10/01 18:52:08;;;;;;;1999.90;999.90;;;;;;;17.34;100.00;102018.81;10414821;28;20077;-67
2023/10/01 18:57:12;;;;;;;1999.90;999.90;;;;;;;17.20;100.00;102020.59;10414205;28;20560;-67
2023/10/01 19:02:21;;;;;;;1999.90;999.90;;;;;;;17.17;100.00;102014.66;10414707;28;20264;-67
2023/10/01 19:07:27;;;;;;;1999.90;999.90;;;;;;;17.07;100.00;102022.34;10397544;28;20057;-67
2023/10/01 19:12:30;;;;;;;1999.90;999.90;;;;;;;17.12;100.00;102014.94;10414713;28;20123;-67
2023/10/01 19:17:32;;;;;;;1999.90;999.90;;;;;;;17.25;100.00;102012.34;10414424;28;20045;-67
2023/10/01 19:22:36;;;;;;;1999.90;999.90;;;;;;;17.05;100.00;102013.66;10414324;28;20087;-67
2023/10/01 19:27:55;;;;;;;1999.90;999.90;;;;;;;16.95;100.00;102020.50;10413722;28;20556;-67
2023/10/01 19:32:58;;;;;;;1999.90;999.90;;;;;;;16.91;100.00;102017.19;10386807;28;20041;-67
2023/10/01 19:38:00;;;;;;;1999.90;999.90;;;;;;;16.86;100.00;102009.56;10421316;28;20107;-67
2023/10/01 19:43:03;;;;;;;1999.90;999.90;;;;;;;16.75;100.00;102011.19;10403812;28;20103;-67
2023/10/01 19:48:07;;;;;;;1999.90;999.90;;;;;;;16.73;100.00;102008.63;10387283;28;20053;-67
2023/10/01 19:53:15;;;;;;;1999.90;999.90;;;;;;;16.72;100.00;102005.13;10403009;28;20486;-67
2023/10/01 19:58:17;;;;;;;1999.90;999.90;;;;;;;16.77;100.00;102010.13;10420262;28;20061;-67
2023/10/01 20:03:23;;;;;;;1999.90;999.90;;;;;;;16.61;100.00;102002.34;10420378;28;20051;-68
2023/10/01 20:08:29;;;;;;;1999.90;999.90;;;;;;;16.62;100.00;102011.94;10403262;28;20075;-68
2023/10/01 20:13:31;;;;;;;1999.90;999.90;;;;;;;16.50;100.00;102008.28;10419695;28;20485;-67
2023/10/01 20:18:34;;;;;;;1999.90;999.90;;;;;;;16.53;100.00;102005.44;10419840;28;20119;-68
2023/10/01 20:23:40;;;;;;;1999.90;999.90;;;;;;;16.47;100.00;102005.00;10385349;28;20398;-68
2023/10/01 20:28:43;;;;;;;1999.90;999.90;;;;;;;16.55;100.00;101999.22;10418827;28;20080;-67
2023/10/01 20:33:51;;;;;;;1999.90;999.90;;;;;;;16.38;100.00;102003.78;10419089;28;20042;-68
2023/10/01 20:38:57;;;;;;;1999.90;999.90;;;;;;;16.37;100.00;102001.22;10402256;28;20060;-66
2023/10/01 20:44:01;;;;;;;1999.90;999.90;;;;;;;16.57;100.00;102002.63;10418299;28;20045;-67
2023/10/01 20:49:06;;;;;;;1999.90;999.90;;;;;;;16.60;100.00;101989.22;10401607;28;20076;-67
2023/10/01 20:54:15;;;;;;;1999.90;999.90;;;;;;;16.52;100.00;101979.97;10418147;28;20120;-67
2023/10/01 20:59:18;;;;;;;1999.90;999.90;;;;;;;16.59;100.00;101982.22;10417585;28;20453;-67
2023/10/01 21:04:25;;;;;;;1999.90;999.90;;;;;;;16.62;100.00;101989.94;10400900;28;20084;-67
2023/10/01 21:09:40;;;;;;;1999.90;999.90;;;;;;;16.34;100.00;101994.38;10400196;28;20075;-67
2023/10/01 21:14:46;;;;;;;1999.90;999.90;;;;;;;16.46;100.00;101984.81;10416914;28;20480;-67
2023/10/01 21:19:52;;;;;;;1999.90;999.90;;;;;;;16.87;100.00;101968.94;10417375;28;20103;-67
2023/10/01 21:24:58;;;;;;;1999.90;999.90;;;;;;;17.24;100.00;101968.28;10417859;28;20128;-67
2023/10/01 21:30:01;;;;;;;1999.90;999.90;;;;;;;17.34;100.00;101957.94;10416390;28;20123;-67
2023/10/01 21:35:03;;;;;;;1999.90;999.90;;;;;;;17.86;100.00;101959.66;10399193;28;20049;-67
2023/10/01 21:40:17;;;;;;;1999.90;999.90;;;;;;;18.16;100.00;101955.84;10398581;28;20478;-67
2023/10/01 21:45:19;;;;;;;1999.90;999.90;;;;;;;18.09;100.00;101947.47;10400451;28;20052;-67
2023/10/01 21:50:23;;;;;;;1999.90;999.90;;;;;;;18.16;100.00;101948.72;10416117;28;20061;-67
2023/10/01 21:55:27;;;;;;;1999.90;999.90;;;;;;;17.85;100.00;101949.16;10415690;28;20072;-67
2023/10/01 22:05:54;;;;;;;1999.90;999.90;;;;;;;18.14;100.00;101934.72;10416077;28;20049;-67
2023/10/01 22:10:56;;;;;;;1999.90;999.90;;;;;;;17.94;100.00;101941.44;10398261;28;20056;-66
2023/10/01 22:16:02;;;;;;;1999.90;999.90;;;;;;;18.27;100.00;101929.38;10415773;28;20052;-67
2023/10/01 22:21:06;;;;;;;1999.90;999.90;;;;;;;18.07;100.00;101940.56;10398593;28;20045;-67
2023/10/01 22:26:14;;;;;;;1999.90;999.90;;;;;;;18.65;100.00;101930.22;10415450;28;20137;-67
2023/10/01 22:31:26;;;;;;;1999.90;999.90;;;;;;;18.63;100.00;101934.78;10415058;28;20410;-67
2023/10/01 22:36:34;;;;;;;1999.90;999.90;;;;;;;18.64;100.00;101939.97;10414830;28;20081;-67
2023/10/01 22:41:37;;;;;;;1999.90;999.90;;;;;;;18.80;99.28;101939.69;10415421;28;20056;-68
2023/10/01 22:46:41;;;;;;;1999.90;999.90;;;;;;;18.63;100.00;101934.78;10415210;28;20053;-67
2023/10/01 22:51:44;;;;;;;1999.90;999.90;;;;;;;18.66;100.00;101932.75;10414447;28;20441;-67
2023/10/01 22:56:46;;;;;;;1999.90;999.90;;;;;;;18.72;100.00;101932.28;10397148;28;20075;-68
2023/10/01 23:01:58;;;;;;;1999.90;999.90;;;;;;;18.72;100.00;101936.75;10414732;28;20049;-67
2023/10/01 23:07:08;;;;;;;1999.90;999.90;;;;;;;18.71;100.00;101932.41;10420016;28;20050;-67
2023/10/01 23:12:12;;;;;;;1999.90;999.90;;;;;;;18.60;100.00;101946.47;10387100;23;20402;-69
2023/10/01 23:17:31;;;;;;;1999.90;999.90;;;;;;;18.60;100.00;101948.28;10380707;28;20478;-69
2023/10/01 23:22:35;;;;;;;1999.90;999.90;;;;;;;18.60;100.00;101940.31;10379724;28;20046;-69